createdAt,value
2022-10-18T00:00:02.921Z,15.20
2022-10-18T00:01:02.890Z,11.80
2022-10-18T00:02:02.936Z,12.80
2022-10-18T00:03:02.871Z,11.80
2022-10-18T00:04:02.867Z,11.30
2022-10-18T00:05:02.926Z,13.30
2022-10-18T00:06:02.843Z,13.60
2022-10-18T00:07:02.837Z,13.20
2022-10-18T00:08:02.840Z,14.80
2022-10-18T00:09:02.839Z,13.40
2022-10-18T00:10:02.813Z,14.60
2022-10-18T00:11:02.840Z,12.50
2022-10-18T00:12:02.801Z,12.40
2022-10-18T00:13:02.808Z,14.60
2022-10-18T00:14:02.871Z,12.80
2022-10-18T00:15:02.788Z,13.50
2022-10-18T00:16:02.800Z,14.00
2022-10-18T00:17:02.780Z,16.80
2022-10-18T00:18:02.768Z,14.20
2022-10-18T00:19:02.752Z,12.30
2022-10-18T00:20:02.778Z,17.30
2022-10-18T00:21:02.763Z,17.00
2022-10-18T00:22:02.740Z,14.60
2022-10-18T00:23:02.753Z,16.60
2022-10-18T00:24:02.735Z,13.00
2022-10-18T00:25:02.723Z,14.10
2022-10-18T00:26:02.732Z,19.50
2022-10-18T00:27:02.728Z,17.70
2022-10-18T00:28:02.696Z,16.50
2022-10-18T00:29:02.779Z,18.10
2022-10-18T00:30:02.686Z,14.50
2022-10-18T00:31:02.692Z,17.40
2022-10-18T00:32:02.674Z,16.00
2022-10-18T00:33:02.674Z,14.10
2022-10-18T00:34:02.674Z,12.10
2022-10-18T00:35:02.650Z,17.00
2022-10-18T00:36:02.654Z,16.90
2022-10-18T00:37:02.630Z,18.30
2022-10-18T00:38:02.637Z,17.50
2022-10-18T00:39:02.630Z,19.80
2022-10-18T00:40:02.627Z,17.30
2022-10-18T00:41:02.612Z,18.70
2022-10-18T00:42:02.635Z,19.10
2022-10-18T00:43:02.587Z,14.30
2022-10-18T00:44:03.590Z,16.70
2022-10-18T00:45:02.604Z,17.50
2022-10-18T00:46:02.583Z,24.30
2022-10-18T00:47:02.582Z,18.10
2022-10-18T00:48:02.580Z,17.20
2022-10-18T00:49:02.567Z,16.70
2022-10-18T00:50:02.559Z,14.90
2022-10-18T00:51:02.550Z,16.30
2022-10-18T00:52:02.549Z,18.80
2022-10-18T00:53:02.539Z,18.60
2022-10-18T00:54:02.534Z,14.50
2022-10-18T00:55:02.539Z,14.00
2022-10-18T00:56:02.509Z,18.80
2022-10-18T00:57:02.525Z,14.10
2022-10-18T00:58:02.551Z,16.90
2022-10-18T00:59:02.486Z,13.00
2022-10-18T01:00:02.494Z,17.30
2022-10-18T01:01:02.478Z,13.20
2022-10-18T01:02:02.518Z,19.90
2022-10-18T01:03:02.492Z,18.00
2022-10-18T01:04:02.480Z,17.30
2022-10-18T01:05:02.463Z,16.40
2022-10-18T01:06:02.450Z,20.20
2022-10-18T01:07:02.432Z,17.50
2022-10-18T01:08:02.448Z,19.50
2022-10-18T01:09:02.427Z,22.60
2022-10-18T01:10:02.435Z,21.90
2022-10-18T01:11:02.421Z,22.50
2022-10-18T01:12:02.421Z,25.20
2022-10-18T01:13:02.410Z,21.20
2022-10-18T01:14:02.413Z,21.00
2022-10-18T01:15:02.394Z,23.30
2022-10-18T01:16:02.382Z,13.80
2022-10-18T01:17:02.371Z,22.70
2022-10-18T01:18:02.363Z,16.70
2022-10-18T01:19:02.420Z,16.60
2022-10-18T01:20:02.359Z,19.50
2022-10-18T01:21:02.333Z,18.80
2022-10-18T01:22:02.360Z,17.10
2022-10-18T01:23:02.332Z,21.70
2022-10-18T01:24:02.326Z,19.90
2022-10-18T01:26:02.437Z,19.50
2022-10-18T01:27:02.317Z,18.90
2022-10-18T01:28:02.327Z,21.30
2022-10-18T01:29:02.371Z,22.30
2022-10-18T01:30:02.273Z,19.50
2022-10-18T01:31:02.274Z,22.70
2022-10-18T01:32:02.298Z,17.60
2022-10-18T01:33:02.270Z,20.20
2022-10-18T01:35:03.275Z,23.50
2022-10-18T01:36:02.317Z,21.30
2022-10-18T01:37:02.249Z,21.70
2022-10-18T01:38:02.238Z,16.90
2022-10-18T01:39:02.234Z,19.00
2022-10-18T01:40:02.223Z,21.90
2022-10-18T01:41:02.225Z,21.40
2022-10-18T01:42:02.330Z,20.50
2022-10-18T01:43:02.250Z,23.70
2022-10-18T01:44:02.200Z,22.40
2022-10-18T01:45:02.211Z,23.60
2022-10-18T01:46:02.193Z,24.70
2022-10-18T01:47:02.162Z,20.50
2022-10-18T01:48:02.165Z,23.20
2022-10-18T01:49:02.182Z,26.80
2022-10-18T01:50:02.145Z,23.50
2022-10-18T01:51:02.193Z,18.90
2022-10-18T01:52:02.253Z,22.40
2022-10-18T01:53:02.141Z,31.90
2022-10-18T01:54:02.162Z,20.50
2022-10-18T01:55:02.114Z,25.30
2022-10-18T01:56:02.105Z,21.30
2022-10-18T01:57:02.118Z,23.20
2022-10-18T01:58:02.127Z,23.30
2022-10-18T01:59:02.102Z,20.20
2022-10-18T02:00:02.111Z,25.00
2022-10-18T02:01:02.168Z,24.70
2022-10-18T02:02:02.075Z,28.60
2022-10-18T02:03:02.089Z,25.60
2022-10-18T02:04:02.053Z,30.10
2022-10-18T02:05:02.058Z,26.90
2022-10-18T02:06:02.053Z,27.40
2022-10-18T02:07:02.036Z,17.90
2022-10-18T02:08:18.852Z,15.20
2022-10-18T02:09:04.022Z,23.10
2022-10-18T02:10:02.111Z,14.50
2022-10-18T02:11:02.025Z,21.40
2022-10-18T02:12:01.999Z,16.20
2022-10-18T02:13:01.990Z,11.10
2022-10-18T02:14:01.989Z,8.70
2022-10-18T02:15:01.981Z,7.50
2022-10-18T02:16:01.990Z,6.20
2022-10-18T02:17:01.967Z,6.40
2022-10-18T02:18:01.947Z,6.10
2022-10-18T02:19:01.964Z,5.50
2022-10-18T02:20:01.945Z,7.00
2022-10-18T02:21:01.933Z,7.80
2022-10-18T02:22:01.945Z,8.30
2022-10-18T02:23:01.931Z,6.00
2022-10-18T02:24:01.921Z,8.20
2022-10-18T02:25:01.913Z,9.40
2022-10-18T02:26:01.908Z,9.20
2022-10-18T02:27:01.910Z,14.70
2022-10-18T02:28:01.882Z,10.10
2022-10-18T02:29:02.913Z,10.60
2022-10-18T02:30:01.911Z,5.70
2022-10-18T02:31:01.890Z,5.90
2022-10-18T02:32:01.873Z,8.10
2022-10-18T02:33:01.887Z,7.60
2022-10-18T02:34:01.881Z,5.10
2022-10-18T02:35:01.831Z,8.40
2022-10-18T02:36:02.842Z,5.40
2022-10-18T02:37:01.870Z,7.00
2022-10-18T02:38:01.874Z,5.60
2022-10-18T02:39:01.822Z,5.80
2022-10-18T02:40:01.804Z,5.50
2022-10-18T02:41:01.809Z,7.00
2022-10-18T02:42:01.795Z,6.50
2022-10-18T02:43:01.825Z,7.10
2022-10-18T02:44:01.795Z,7.70
2022-10-18T02:45:01.820Z,6.10
2022-10-18T02:46:01.769Z,7.50
2022-10-18T02:47:01.767Z,5.80
2022-10-18T02:48:01.806Z,4.90
2022-10-18T02:49:01.750Z,7.00
2022-10-18T02:50:01.806Z,6.70
2022-10-18T02:51:01.739Z,7.40
2022-10-18T02:52:01.742Z,6.80
2022-10-18T02:53:01.718Z,5.60
2022-10-18T02:54:01.743Z,5.40
2022-10-18T02:55:01.758Z,7.50
2022-10-18T02:56:01.701Z,5.60
2022-10-18T02:57:01.691Z,7.50
2022-10-18T02:58:01.695Z,4.80
2022-10-18T02:59:01.705Z,6.00
2022-10-18T03:00:01.694Z,7.00
2022-10-18T03:01:01.714Z,7.40
2022-10-18T03:02:01.682Z,5.70
2022-10-18T03:03:01.674Z,6.90
2022-10-18T03:04:01.664Z,7.30
2022-10-18T03:05:01.682Z,9.40
2022-10-18T03:06:01.640Z,9.10
2022-10-18T03:07:01.638Z,10.60
2022-10-18T03:08:01.638Z,10.60
2022-10-18T03:09:01.630Z,10.70
2022-10-18T03:10:01.633Z,8.10
2022-10-18T03:11:01.610Z,9.60
2022-10-18T03:12:01.613Z,7.00
2022-10-18T03:13:01.595Z,7.60
2022-10-18T03:14:01.590Z,9.60
2022-10-18T03:15:01.605Z,11.50
2022-10-18T03:16:01.606Z,7.50
2022-10-18T03:17:01.584Z,8.80
2022-10-18T03:18:01.586Z,7.70
2022-10-18T03:19:01.571Z,10.80
2022-10-18T03:20:01.559Z,9.90
2022-10-18T03:21:01.561Z,7.00
2022-10-18T03:22:01.581Z,7.20
2022-10-18T03:23:01.546Z,6.90
2022-10-18T03:24:02.313Z,7.00
2022-10-18T03:25:01.539Z,7.30
2022-10-18T03:26:01.521Z,7.40
2022-10-18T03:27:01.534Z,7.50
2022-10-18T03:28:01.510Z,7.70
2022-10-18T03:29:01.575Z,6.60
2022-10-18T03:30:01.500Z,6.90
2022-10-18T03:31:01.491Z,7.60
2022-10-18T03:32:01.512Z,7.50
2022-10-18T03:33:01.467Z,6.00
2022-10-18T03:34:01.466Z,6.20
2022-10-18T03:35:01.482Z,7.80
2022-10-18T03:36:01.459Z,5.40
2022-10-18T03:37:04.666Z,5.40
2022-10-18T03:38:01.451Z,6.40
2022-10-18T03:39:01.430Z,8.40
2022-10-18T03:40:01.435Z,5.90
2022-10-18T03:41:01.417Z,6.10
2022-10-18T03:42:01.432Z,8.50
2022-10-18T03:43:01.433Z,8.10
2022-10-18T03:44:01.407Z,9.20
2022-10-18T03:45:01.424Z,8.40
2022-10-18T03:46:01.387Z,6.40
2022-10-18T03:47:02.298Z,6.10
2022-10-18T03:48:01.371Z,8.70
2022-10-18T03:49:01.383Z,8.30
2022-10-18T03:50:01.363Z,6.60
2022-10-18T03:51:01.362Z,5.80
2022-10-18T03:52:01.361Z,6.60
2022-10-18T03:53:01.343Z,8.30
2022-10-18T03:54:01.367Z,9.20
2022-10-18T03:55:01.366Z,8.90
2022-10-18T03:56:01.335Z,6.80
2022-10-18T03:57:01.314Z,7.70
2022-10-18T03:58:01.314Z,9.80
2022-10-18T03:59:01.329Z,8.90
2022-10-18T04:00:01.306Z,9.30
2022-10-18T04:01:01.294Z,9.90
2022-10-18T04:02:01.330Z,10.70
2022-10-18T04:03:01.284Z,10.50
2022-10-18T04:04:01.270Z,11.00
2022-10-18T04:05:01.309Z,11.70
2022-10-18T04:06:01.270Z,10.40
2022-10-18T04:07:01.277Z,13.50
2022-10-18T04:08:01.261Z,12.30
2022-10-18T04:09:03.180Z,12.20
2022-10-18T04:10:01.242Z,12.30
2022-10-18T04:11:01.256Z,12.80
2022-10-18T04:12:01.214Z,12.80
2022-10-18T04:13:01.250Z,11.90
2022-10-18T04:14:01.210Z,11.80
2022-10-18T04:15:01.262Z,10.70
2022-10-18T04:16:01.198Z,13.40
2022-10-18T04:17:01.182Z,11.90
2022-10-18T04:18:01.202Z,13.20
2022-10-18T04:19:01.167Z,14.30
2022-10-18T04:20:01.173Z,11.50
2022-10-18T04:21:01.182Z,13.20
2022-10-18T04:22:01.207Z,14.60
2022-10-18T04:23:01.167Z,15.90
2022-10-18T04:24:01.165Z,13.80
2022-10-18T04:25:01.134Z,18.90
2022-10-18T04:26:01.130Z,17.40
2022-10-18T04:27:01.122Z,14.80
2022-10-18T04:28:14.254Z,15.40
2022-10-18T04:29:01.151Z,17.50
2022-10-18T04:30:01.098Z,11.90
2022-10-18T04:31:02.305Z,12.50
2022-10-18T04:32:01.805Z,10.20
2022-10-18T04:33:01.099Z,12.90
2022-10-18T04:34:01.090Z,9.80
2022-10-18T04:35:01.073Z,9.40
2022-10-18T04:36:01.059Z,11.10
2022-10-18T04:37:01.072Z,10.50
2022-10-18T04:38:02.825Z,10.00
2022-10-18T04:39:01.059Z,10.20
2022-10-18T04:40:01.111Z,10.90
2022-10-18T04:41:01.025Z,9.00
2022-10-18T04:42:01.042Z,13.90
2022-10-18T04:43:01.022Z,11.40
2022-10-18T04:44:01.018Z,13.50
2022-10-18T04:45:01.404Z,12.30
2022-10-18T04:46:00.983Z,11.60
2022-10-18T04:47:00.982Z,14.20
2022-10-18T04:48:00.988Z,15.80
2022-10-18T04:49:01.000Z,13.00
2022-10-18T04:50:00.955Z,13.30
2022-10-18T04:51:01.965Z,13.20
2022-10-18T04:52:00.968Z,16.80
2022-10-18T04:53:00.959Z,13.30
2022-10-18T04:54:00.938Z,16.30
2022-10-18T04:55:01.097Z,15.10
2022-10-18T04:56:01.309Z,13.20
2022-10-18T04:57:00.933Z,16.80
2022-10-18T04:58:00.917Z,20.20
2022-10-18T04:59:00.920Z,21.80
2022-10-18T05:00:00.952Z,20.70
2022-10-18T05:01:00.955Z,21.00
2022-10-18T05:02:00.987Z,16.50
2022-10-18T05:03:03.500Z,17.80
2022-10-18T05:04:01.026Z,15.50
2022-10-18T05:05:01.748Z,20.90
2022-10-18T05:06:02.831Z,12.60
2022-10-18T05:07:02.095Z,16.50
2022-10-18T05:08:00.841Z,14.00
2022-10-18T05:09:01.914Z,13.30
2022-10-18T05:10:00.875Z,14.10
2022-10-18T05:11:00.884Z,14.60
2022-10-18T05:12:01.815Z,14.70
2022-10-18T05:13:01.088Z,12.10
2022-10-18T05:14:00.808Z,18.10
2022-10-18T05:15:00.863Z,16.80
2022-10-18T05:16:00.901Z,17.00
2022-10-18T05:17:00.779Z,16.40
2022-10-18T05:18:00.792Z,20.50
2022-10-18T05:19:00.779Z,21.10
2022-10-18T05:20:00.946Z,13.70
2022-10-18T05:21:00.766Z,16.10
2022-10-18T05:22:00.986Z,18.00
2022-10-18T05:23:00.899Z,13.90
2022-10-18T05:24:00.746Z,18.00
2022-10-18T05:25:00.805Z,17.20
2022-10-18T05:26:00.739Z,19.70
2022-10-18T05:27:00.722Z,20.20
2022-10-18T05:28:06.272Z,14.40
2022-10-18T05:29:02.863Z,14.10
2022-10-18T05:30:04.715Z,17.50
2022-10-18T05:31:00.712Z,18.30
2022-10-18T05:32:00.892Z,22.10
2022-10-18T05:33:00.681Z,19.80
2022-10-18T05:34:00.684Z,21.70
2022-10-18T05:35:00.702Z,24.80
2022-10-18T05:36:00.661Z,24.80
2022-10-18T05:37:00.656Z,22.90
2022-10-18T05:38:00.769Z,22.00
2022-10-18T05:39:04.022Z,26.70
2022-10-18T05:40:00.648Z,21.70
2022-10-18T05:41:01.299Z,27.30
2022-10-18T05:42:00.635Z,26.50
2022-10-18T05:43:00.610Z,25.50
2022-10-18T05:44:00.687Z,25.80
2022-10-18T05:45:00.613Z,20.40
2022-10-18T05:46:00.622Z,29.50
2022-10-18T05:47:00.618Z,24.50
2022-10-18T05:48:00.625Z,28.80
2022-10-18T05:49:00.584Z,22.90
2022-10-18T05:50:00.632Z,30.50
2022-10-18T05:51:00.578Z,30.80
2022-10-18T05:52:00.611Z,29.70
2022-10-18T05:53:11.888Z,31.40
2022-10-18T05:54:02.534Z,28.70
2022-10-18T05:55:01.429Z,36.90
2022-10-18T05:56:00.580Z,38.30
2022-10-18T05:57:00.528Z,38.00
2022-10-18T05:58:00.515Z,27.20
2022-10-18T05:59:00.548Z,34.20
2022-10-18T06:00:00.499Z,25.10
2022-10-18T06:01:00.491Z,36.50
2022-10-18T06:02:00.539Z,28.10
2022-10-18T06:03:00.742Z,27.30
2022-10-18T06:04:00.490Z,30.40
2022-10-18T06:05:00.786Z,35.10
2022-10-18T06:06:00.466Z,31.50
2022-10-18T06:07:00.451Z,35.60
2022-10-18T06:08:00.462Z,35.70
2022-10-18T06:09:00.455Z,34.60
2022-10-18T06:10:00.434Z,33.50
2022-10-18T06:11:00.450Z,33.60
2022-10-18T06:12:00.420Z,39.00
2022-10-18T06:13:00.415Z,33.00
2022-10-18T06:14:00.444Z,33.10
2022-10-18T06:15:00.424Z,25.00
2022-10-18T06:16:00.405Z,40.60
2022-10-18T06:17:00.391Z,33.10
2022-10-18T06:18:00.399Z,34.60
2022-10-18T06:19:00.366Z,27.60
2022-10-18T06:20:02.041Z,28.30
2022-10-18T06:21:00.411Z,35.90
2022-10-18T06:22:00.374Z,29.50
2022-10-18T06:23:00.372Z,32.60
2022-10-18T06:24:00.334Z,26.00
2022-10-18T06:25:00.387Z,30.00
2022-10-18T06:26:00.329Z,25.40
2022-10-18T06:27:00.381Z,21.80
2022-10-18T06:28:00.390Z,24.50
2022-10-18T06:29:00.384Z,21.80
2022-10-18T06:30:00.350Z,22.10
2022-10-18T06:31:00.299Z,24.00
2022-10-18T06:32:01.289Z,20.50
2022-10-18T06:33:00.272Z,25.20
2022-10-18T06:34:00.272Z,22.70
2022-10-18T06:35:00.265Z,23.90
2022-10-18T06:36:00.278Z,20.50
2022-10-18T06:37:00.292Z,25.70
2022-10-18T06:38:00.346Z,19.10
2022-10-18T06:39:00.862Z,20.90
2022-10-18T06:40:00.267Z,18.90
2022-10-18T06:41:00.237Z,18.70
2022-10-18T06:42:00.213Z,23.80
2022-10-18T06:43:10.650Z,16.50
2022-10-18T06:44:01.204Z,18.40
2022-10-18T06:45:00.279Z,15.80
2022-10-18T06:46:00.183Z,14.30
2022-10-18T06:47:00.241Z,13.80
2022-10-18T06:48:00.214Z,15.00
2022-10-18T06:49:00.169Z,12.70
2022-10-18T06:50:00.861Z,12.00
2022-10-18T06:51:00.165Z,14.40
2022-10-18T06:52:00.141Z,15.00
2022-10-18T06:53:00.156Z,12.90
2022-10-18T06:54:16.920Z,14.40
2022-10-18T06:55:04.215Z,11.10
2022-10-18T06:56:01.137Z,13.70
2022-10-18T06:57:00.130Z,16.50
2022-10-18T06:58:00.110Z,18.40
2022-10-18T06:59:00.218Z,15.60
2022-10-18T07:00:00.096Z,14.50
2022-10-18T07:01:00.084Z,13.90
2022-10-18T07:02:00.154Z,15.10
2022-10-18T07:03:00.058Z,16.30
2022-10-18T07:04:00.093Z,12.30
2022-10-18T07:05:00.053Z,13.20
2022-10-18T07:06:00.073Z,16.30
2022-10-18T07:07:00.064Z,13.90
2022-10-18T07:08:00.033Z,16.50
2022-10-18T07:09:00.082Z,10.90
2022-10-18T07:10:00.034Z,15.70
2022-10-18T07:11:00.027Z,13.60
2022-10-18T07:12:00.842Z,14.30
2022-10-18T07:13:20.046Z,13.80
2022-10-18T07:14:02.019Z,14.90
2022-10-18T07:15:00.079Z,15.00
2022-10-18T07:16:00.014Z,14.10
2022-10-18T07:16:59.999Z,10.80
2022-10-18T07:17:59.988Z,10.10
2022-10-18T07:18:59.989Z,11.70
2022-10-18T07:19:59.988Z,10.50
2022-10-18T07:20:59.945Z,13.50
2022-10-18T07:21:59.928Z,12.10
2022-10-18T07:22:59.969Z,12.30
2022-10-18T07:23:59.943Z,14.70
2022-10-18T07:25:00.031Z,15.70
2022-10-18T07:25:59.911Z,12.40
2022-10-18T07:26:59.904Z,12.60
2022-10-18T07:27:59.971Z,13.40
2022-10-18T07:28:59.940Z,14.40
2022-10-18T07:29:59.900Z,14.90
2022-10-18T07:31:03.657Z,12.60
2022-10-18T07:32:01.871Z,12.60
2022-10-18T07:32:59.877Z,11.40
2022-10-18T07:33:59.875Z,11.30
2022-10-18T07:35:01.001Z,14.70
2022-10-18T07:35:59.835Z,12.90
2022-10-18T07:36:59.875Z,15.10
2022-10-18T07:37:59.815Z,16.10
2022-10-18T07:38:59.877Z,14.30
2022-10-18T07:39:59.842Z,16.50
2022-10-18T07:40:59.812Z,16.80
2022-10-18T07:41:59.849Z,15.80
2022-10-18T07:43:04.054Z,19.20
2022-10-18T07:44:00.800Z,15.10
2022-10-18T07:44:59.797Z,16.80
2022-10-18T07:45:59.797Z,16.20
2022-10-18T07:46:59.775Z,14.50
2022-10-18T07:47:59.837Z,14.80
2022-10-18T07:48:59.758Z,15.60
2022-10-18T07:49:59.820Z,14.90
2022-10-18T07:50:59.774Z,14.50
2022-10-18T07:51:59.758Z,11.90
2022-10-18T07:52:59.793Z,14.90
2022-10-18T07:53:59.732Z,14.00
2022-10-18T07:54:59.715Z,13.50
2022-10-18T07:56:00.234Z,15.80
2022-10-18T07:56:59.703Z,15.00
2022-10-18T07:57:59.779Z,15.50
2022-10-18T07:58:59.695Z,16.90
2022-10-18T07:59:59.723Z,14.40
2022-10-18T08:00:59.708Z,14.40
2022-10-18T08:01:59.748Z,18.30
2022-10-18T08:02:59.734Z,14.00
2022-10-18T08:04:03.385Z,14.40
2022-10-18T08:05:01.678Z,15.20
2022-10-18T08:05:59.693Z,13.70
2022-10-18T08:06:59.646Z,12.60
2022-10-18T08:08:01.950Z,15.00
2022-10-18T08:08:59.642Z,15.40
2022-10-18T08:09:59.638Z,14.70
2022-10-18T08:10:59.624Z,15.00
2022-10-18T08:11:59.685Z,12.70
2022-10-18T08:12:59.693Z,15.00
2022-10-18T08:13:59.594Z,15.50
2022-10-18T08:14:59.609Z,14.40
2022-10-18T08:15:59.597Z,14.20
2022-10-18T08:16:59.597Z,12.30
2022-10-18T08:17:59.640Z,13.70
2022-10-18T08:18:59.700Z,13.30
2022-10-18T08:20:11.877Z,12.00
2022-10-18T08:21:00.565Z,12.00
2022-10-18T08:21:59.554Z,13.40
2022-10-18T08:23:00.586Z,13.90
2022-10-18T08:24:00.566Z,11.10
2022-10-18T08:24:59.537Z,13.10
2022-10-18T08:25:59.515Z,13.30
2022-10-18T08:26:59.574Z,12.20
2022-10-18T08:27:59.522Z,12.10
2022-10-18T08:29:10.623Z,12.60
2022-10-18T08:30:01.567Z,13.40
2022-10-18T08:30:59.518Z,12.40
2022-10-18T08:31:59.730Z,18.90
2022-10-18T08:32:59.624Z,14.60
2022-10-18T08:33:59.575Z,13.90
2022-10-18T08:34:59.515Z,12.80
2022-10-18T08:35:59.472Z,16.60
2022-10-18T08:36:59.469Z,10.40
2022-10-18T08:37:59.475Z,12.30
2022-10-18T08:38:59.477Z,12.10
2022-10-18T08:39:59.447Z,13.00
2022-10-18T08:40:59.434Z,15.20
2022-10-18T08:41:59.896Z,12.20
2022-10-18T08:42:59.430Z,13.30
2022-10-18T08:44:01.099Z,12.80
2022-10-18T08:45:05.021Z,11.60
2022-10-18T08:46:00.453Z,12.60
2022-10-18T08:46:59.427Z,11.80
2022-10-18T08:47:59.425Z,13.50
2022-10-18T08:48:59.383Z,12.20
2022-10-18T08:49:59.446Z,17.20
2022-10-18T08:50:59.456Z,15.30
2022-10-18T08:51:59.371Z,14.90
2022-10-18T08:52:59.423Z,13.20
2022-10-18T08:53:59.372Z,12.10
2022-10-18T08:54:59.337Z,14.60
2022-10-18T08:55:59.447Z,11.30
2022-10-18T08:56:59.328Z,13.90
2022-10-18T08:57:59.320Z,12.00
2022-10-18T08:58:59.358Z,11.70
2022-10-18T08:59:59.368Z,11.80
2022-10-18T09:00:59.315Z,11.50
2022-10-18T09:01:59.295Z,12.10
2022-10-18T09:02:59.348Z,11.70
2022-10-18T09:03:59.270Z,11.40
2022-10-18T09:05:00.277Z,10.30
2022-10-18T09:05:59.290Z,11.50
2022-10-18T09:06:59.266Z,15.10
2022-10-18T09:07:59.276Z,11.90
2022-10-18T09:08:59.487Z,14.30
2022-10-18T09:09:59.243Z,13.20
2022-10-18T09:10:59.333Z,12.00
2022-10-18T09:12:01.903Z,11.20
2022-10-18T09:13:00.248Z,14.50
2022-10-18T09:13:59.215Z,14.60
2022-10-18T09:14:59.286Z,12.00
2022-10-18T09:15:59.198Z,10.00
2022-10-18T09:17:00.199Z,10.20
2022-10-18T09:17:59.358Z,11.90
2022-10-18T09:18:59.195Z,11.70
2022-10-18T09:20:59.372Z,10.40
2022-10-18T09:21:59.157Z,13.50
2022-10-18T09:22:59.177Z,11.90
2022-10-18T09:23:59.375Z,10.50
2022-10-18T09:24:59.141Z,14.40
2022-10-18T09:25:59.132Z,12.30
2022-10-18T09:26:59.142Z,10.30
2022-10-18T09:27:59.116Z,10.40
2022-10-18T09:28:59.262Z,10.70
2022-10-18T09:29:59.169Z,9.40
2022-10-18T09:30:59.788Z,11.70
2022-10-18T09:31:59.088Z,10.60
2022-10-18T09:32:59.256Z,9.90
2022-10-18T09:33:59.080Z,8.90
2022-10-18T09:34:59.083Z,8.10
2022-10-18T09:35:59.133Z,8.60
2022-10-18T09:36:59.140Z,8.30
2022-10-18T09:37:59.058Z,10.70
2022-10-18T09:39:00.438Z,8.20
2022-10-18T09:39:59.168Z,8.40
2022-10-18T09:40:59.047Z,8.50
2022-10-18T09:41:59.027Z,9.90
2022-10-18T09:42:59.082Z,8.90
2022-10-18T09:43:59.018Z,8.80
2022-10-18T09:44:59.018Z,8.70
2022-10-18T09:45:59.037Z,9.00
2022-10-18T09:46:58.998Z,11.20
2022-10-18T09:47:59.062Z,14.40
2022-10-18T09:48:59.005Z,13.20
2022-10-18T09:49:59.034Z,12.40
2022-10-18T09:50:58.994Z,11.80
2022-10-18T09:51:59.030Z,14.30
2022-10-18T09:52:58.963Z,12.70
2022-10-18T09:53:59.006Z,9.40
2022-10-18T09:54:58.995Z,24.70
2022-10-18T09:55:58.978Z,16.20
2022-10-18T09:56:59.133Z,11.60
2022-10-18T09:57:59.826Z,12.50
2022-10-18T09:58:59.163Z,12.50
2022-10-18T09:59:58.914Z,11.60
2022-10-18T10:00:58.910Z,10.10
2022-10-18T10:01:58.977Z,10.40
2022-10-18T10:02:58.911Z,9.80
2022-10-18T10:03:59.907Z,10.60
2022-10-18T10:04:58.951Z,8.60
2022-10-18T10:05:58.999Z,11.00
2022-10-18T10:06:58.883Z,9.10
2022-10-18T10:07:58.903Z,11.20
2022-10-18T10:08:58.870Z,8.90
2022-10-18T10:09:58.871Z,10.60
2022-10-18T10:10:58.850Z,8.80
2022-10-18T10:11:58.859Z,8.80
2022-10-18T10:12:58.863Z,8.40
2022-10-18T10:13:58.989Z,8.90
2022-10-18T10:14:58.851Z,9.60
2022-10-18T10:15:58.895Z,10.10
2022-10-18T10:16:59.761Z,8.50
2022-10-18T10:17:59.835Z,8.90
2022-10-18T10:18:58.830Z,8.30
2022-10-18T10:19:58.834Z,8.80
2022-10-18T10:20:58.803Z,11.70
2022-10-18T10:21:58.802Z,11.00
2022-10-18T10:22:58.799Z,8.70
2022-10-18T10:23:58.815Z,7.70
2022-10-18T10:24:58.799Z,10.40
2022-10-18T10:25:58.859Z,7.50
2022-10-18T10:26:59.883Z,9.20
2022-10-18T10:27:58.858Z,9.80
2022-10-18T10:28:58.792Z,8.40
2022-10-18T10:30:01.526Z,8.70
2022-10-18T10:31:00.875Z,6.70
2022-10-18T10:31:58.813Z,7.90
2022-10-18T10:32:58.775Z,6.40
2022-10-18T10:33:59.434Z,7.80
2022-10-18T10:34:58.773Z,6.80
2022-10-18T10:35:58.734Z,6.70
2022-10-18T10:37:31.533Z,5.40
2022-10-18T10:37:58.710Z,7.10
2022-10-18T10:38:58.706Z,7.20
2022-10-18T10:40:17.238Z,8.90
2022-10-18T10:41:00.687Z,6.30
2022-10-18T10:41:58.698Z,6.20
2022-10-18T10:43:08.855Z,7.20
2022-10-18T10:44:00.682Z,7.80
2022-10-18T10:44:58.663Z,6.00
2022-10-18T10:45:58.670Z,6.90
2022-10-18T10:46:58.646Z,5.60
2022-10-18T10:47:58.656Z,5.50
2022-10-18T10:49:21.055Z,5.80
2022-10-18T10:50:00.643Z,6.40
2022-10-18T10:50:58.653Z,6.40
2022-10-18T10:52:08.573Z,6.70
2022-10-18T10:52:59.647Z,5.90
2022-10-18T10:53:58.610Z,6.60
2022-10-18T10:55:06.090Z,11.20
2022-10-18T10:56:00.634Z,8.80
2022-10-18T10:56:58.570Z,8.50
2022-10-18T10:57:58.586Z,9.80
2022-10-18T10:58:58.650Z,19.10
2022-10-18T10:59:58.577Z,13.90
2022-10-18T11:00:58.670Z,7.70
2022-10-18T11:01:58.575Z,9.50
2022-10-18T11:03:06.061Z,8.70
2022-10-18T11:04:00.562Z,9.10
2022-10-18T11:04:58.617Z,7.90
2022-10-18T11:05:58.520Z,7.40
2022-10-18T11:06:58.509Z,9.90
2022-10-18T11:07:58.492Z,8.00
2022-10-18T11:08:58.500Z,7.50
2022-10-18T11:09:58.521Z,6.70
2022-10-18T11:10:58.530Z,5.90
2022-10-18T11:11:58.472Z,6.20
2022-10-18T11:12:58.489Z,6.70
2022-10-18T11:14:13.601Z,6.50
2022-10-18T11:15:00.478Z,6.50
2022-10-18T11:15:58.471Z,5.80
2022-10-18T11:16:58.501Z,5.50
2022-10-18T11:17:58.449Z,6.00
2022-10-18T11:18:58.436Z,6.80
2022-10-18T11:19:58.488Z,7.50
2022-10-18T11:20:58.431Z,5.90
2022-10-18T11:21:58.415Z,7.20
2022-10-18T11:22:58.405Z,6.30
2022-10-18T11:23:58.472Z,6.50
2022-10-18T11:24:58.396Z,6.10
2022-10-18T11:25:58.387Z,5.20
2022-10-18T11:26:58.383Z,5.50
2022-10-18T11:27:58.367Z,5.10
2022-10-18T11:28:58.407Z,5.70
2022-10-18T11:29:58.367Z,5.20
2022-10-18T11:30:58.395Z,5.80
2022-10-18T11:31:58.352Z,5.90
2022-10-18T11:32:58.348Z,6.50
2022-10-18T11:34:08.611Z,6.10
2022-10-18T11:35:00.371Z,6.10
2022-10-18T11:36:03.566Z,5.30
2022-10-18T11:37:25.962Z,5.40
2022-10-18T11:38:00.887Z,6.60
2022-10-18T11:38:58.347Z,5.80
2022-10-18T11:39:58.309Z,6.00
2022-10-18T11:40:58.304Z,7.00
2022-10-18T11:41:58.295Z,7.70
2022-10-18T11:42:58.284Z,5.10
2022-10-18T11:44:02.529Z,6.70
2022-10-18T11:44:59.340Z,6.50
2022-10-18T11:45:58.316Z,5.60
2022-10-18T11:46:59.244Z,4.90
2022-10-18T11:47:58.287Z,7.80
2022-10-18T11:48:58.236Z,4.90
2022-10-18T11:49:58.219Z,5.60
2022-10-18T11:50:59.244Z,4.30
2022-10-18T11:52:07.875Z,4.90
2022-10-18T11:53:00.220Z,4.00
2022-10-18T11:53:58.223Z,7.70
2022-10-18T11:54:58.187Z,4.80
2022-10-18T11:55:58.240Z,4.60
2022-10-18T11:56:58.187Z,4.60
2022-10-18T11:57:58.221Z,4.40
2022-10-18T11:58:58.271Z,7.40
2022-10-18T11:59:58.187Z,5.60
2022-10-18T12:00:58.219Z,7.30
2022-10-18T12:01:58.171Z,4.50
2022-10-18T12:02:58.206Z,3.90
2022-10-18T12:03:58.163Z,4.00
2022-10-18T12:06:00.178Z,4.80
2022-10-18T12:06:58.161Z,5.80
2022-10-18T12:07:58.154Z,6.00
2022-10-18T12:08:58.135Z,5.40
2022-10-18T12:09:58.133Z,4.50
2022-10-18T12:11:06.250Z,4.30
2022-10-18T12:12:00.162Z,4.60
2022-10-18T12:12:58.123Z,4.10
2022-10-18T12:13:58.115Z,3.70
2022-10-18T12:14:58.118Z,4.20
2022-10-18T12:15:58.107Z,5.70
2022-10-18T12:17:20.313Z,3.70
2022-10-18T12:18:00.091Z,4.20
2022-10-18T12:18:58.111Z,4.00
2022-10-18T12:19:58.103Z,5.20
2022-10-18T12:20:58.079Z,5.60
2022-10-18T12:21:58.181Z,5.10
2022-10-18T12:22:58.099Z,8.00
2022-10-18T12:23:58.143Z,5.40
2022-10-18T12:24:58.052Z,5.20
2022-10-18T12:25:58.055Z,6.00
2022-10-18T12:26:58.083Z,5.60
2022-10-18T12:27:58.101Z,6.10
2022-10-18T12:28:58.109Z,5.40
2022-10-18T12:29:58.059Z,7.20
2022-10-18T12:30:58.064Z,5.80
2022-10-18T12:31:58.019Z,5.10
2022-10-18T12:33:09.948Z,6.70
2022-10-18T12:34:00.779Z,5.20
2022-10-18T12:34:58.026Z,5.70
2022-10-18T12:35:57.999Z,7.00
2022-10-18T12:36:58.051Z,5.80
2022-10-18T12:37:57.991Z,5.90
2022-10-18T12:38:58.006Z,8.10
2022-10-18T12:40:09.848Z,7.00
2022-10-18T12:40:59.987Z,7.80
2022-10-18T12:41:57.939Z,5.50
2022-10-18T12:42:57.957Z,5.40
2022-10-18T12:43:57.959Z,6.40
2022-10-18T12:44:57.954Z,6.50
2022-10-18T12:45:57.947Z,5.70
2022-10-18T12:46:57.929Z,5.80
2022-10-18T12:47:57.947Z,7.10
2022-10-18T12:48:57.968Z,6.30
2022-10-18T12:49:57.903Z,6.20
2022-10-18T12:50:57.920Z,7.60
2022-10-18T12:51:57.938Z,5.90
2022-10-18T12:52:57.914Z,6.80
2022-10-18T12:53:57.903Z,7.40
2022-10-18T12:54:57.898Z,6.60
2022-10-18T12:55:57.876Z,7.20
2022-10-18T12:56:57.908Z,6.20
2022-10-18T12:57:57.881Z,7.40
2022-10-18T12:58:57.833Z,9.70
2022-10-18T12:59:57.862Z,8.80
2022-10-18T13:00:57.831Z,6.80
2022-10-18T13:01:57.881Z,7.40
2022-10-18T13:02:58.353Z,7.20
2022-10-18T13:03:57.910Z,7.80
2022-10-18T13:05:57.799Z,5.50
2022-10-18T13:06:57.801Z,5.90